Time;durP1;ratioP1;P1;durP2;ratioP2;P2;SDS_P1;SDS_P2;PMS_P1;PMS_P2;Temp;Humidity;BMP_temperature;BMP_pressure;BME280_temperature;BME280_humidity;BME280_pressure;Samples;Min_cycle;Max_cycle;Signal;HPM_P1;HPM_P2
2022/11/02 00:01:40;;;;;;;4.20;2.17;;;15.10;63.80;;;17.53;48.17;101407.09;4917911;29;20226;-61
2022/11/02 00:04:09;;;;;;;4.50;2.30;;;15.10;63.70;;;17.59;48.06;101411.56;4917929;29;20668;-58
2022/11/02 00:06:36;;;;;;;7.03;2.27;;;15.20;63.80;;;17.64;47.82;101405.63;4916775;29;20258;-59
2022/11/02 00:09:03;;;;;;;9.33;2.17;;;15.20;63.70;;;17.64;47.98;101407.50;4899533;29;20187;-57
2022/11/02 00:11:30;;;;;;;6.07;1.97;;;15.20;63.70;;;17.61;48.20;101402.59;4897511;29;20223;-59
2022/11/02 00:13:57;;;;;;;6.63;2.50;;;15.20;64.40;;;17.58;48.14;101409.97;4899152;29;20200;-58
2022/11/02 00:16:25;;;;;;;7.03;2.17;;;15.20;63.60;;;17.62;48.03;101401.53;4899078;29;20608;-60
2022/11/02 00:18:58;;;;;;;6.43;2.13;;;15.20;63.60;;;17.55;47.96;101399.72;4917763;29;20218;-59
2022/11/02 00:21:27;;;;;;;8.07;2.30;;;15.20;63.60;;;17.56;48.19;101390.72;4917497;29;20727;-56
2022/11/02 00:23:57;;;;;;;7.63;1.97;;;15.20;63.60;;;17.57;48.00;101388.84;4917568;29;20246;-59
2022/11/02 00:26:26;;;;;;;6.90;2.13;;;15.20;64.40;;;17.58;48.10;101382.50;4917401;29;20524;-59
2022/11/02 00:28:54;;;;;;;7.37;2.20;;;15.20;63.70;;;17.54;48.26;101379.41;4899379;29;20335;-58
2022/11/02 00:31:21;;;;;;;4.87;1.90;;;15.20;63.70;;;17.58;48.11;101385.16;4899099;29;20219;-58
2022/11/02 00:33:48;;;;;;;6.53;2.27;;;15.20;63.70;;;17.58;48.10;101383.34;4905984;29;20250;-58
2022/11/02 00:36:16;;;;;;;6.67;2.27;;;15.10;63.70;;;17.61;48.26;101381.28;4917344;29;20231;-58
2022/11/02 00:38:44;;;;;;;4.73;2.07;;;15.20;63.80;;;17.63;48.03;101384.56;4917166;29;20198;-58
2022/11/02 00:41:11;;;;;;;10.60;2.37;;;15.20;63.80;;;17.59;48.17;101366.31;4917473;29;20218;-60
2022/11/02 00:43:38;;;;;;;8.47;2.13;;;15.10;63.70;;;17.51;48.16;101371.88;4918092;29;20205;-58
2022/11/02 00:46:05;;;;;;;8.90;2.67;;;15.20;63.90;;;17.54;48.28;101376.75;4917745;29;20231;-56
2022/11/02 00:48:32;;;;;;;5.93;1.90;;;15.10;63.70;;;17.52;48.27;101373.47;4916413;29;20198;-58
2022/11/02 00:50:59;;;;;;;10.57;2.23;;;15.10;63.80;;;17.48;48.26;101366.91;4898722;29;20271;-60
2022/11/02 00:53:27;;;;;;;10.53;2.40;;;15.10;63.90;;;17.50;48.26;101370.19;4909833;29;20354;-58
2022/11/02 00:55:55;;;;;;;7.10;2.40;;;15.10;63.90;;;17.44;48.38;101371.00;4917411;29;20203;-59
2022/11/02 00:58:22;;;;;;;8.30;2.10;;;15.10;63.90;;;17.50;48.28;101372.84;4917999;29;20248;-59
2022/11/02 01:00:49;;;;;;;5.20;1.93;;;15.20;64.00;;;17.53;48.24;101369.00;4918412;29;20230;-59
2022/11/02 01:03:16;;;;;;;7.20;1.97;;;15.20;64.00;;;17.59;48.18;101368.97;4917613;29;20213;-59
2022/11/02 01:05:43;;;;;;;5.63;2.50;;;15.20;63.90;;;17.62;48.37;101356.28;4911103;29;20600;-58
2022/11/02 01:08:10;;;;;;;9.43;2.50;;;15.20;64.00;;;17.65;48.26;101363.88;4898537;29;20287;-61
2022/11/02 01:10:37;;;;;;;6.23;2.13;;;15.20;64.10;;;17.69;48.13;101362.41;4897770;29;20255;-60
2022/11/02 01:13:11;;;;;;;6.83;2.13;;;15.20;64.10;;;17.65;48.46;101356.69;4898296;29;20558;-58
2022/11/02 01:15:38;;;;;;;5.27;2.70;;;15.30;64.40;;;17.63;48.58;101347.28;4903561;29;20214;-59
2022/11/02 01:18:05;;;;;;;6.63;2.13;;;15.20;64.40;;;17.59;48.80;101342.34;4917114;29;20221;-60
2022/11/02 01:20:33;;;;;;;5.63;2.17;;;15.20;64.60;;;17.53;48.94;101337.88;4916967;29;20244;-60
2022/11/02 01:23:00;;;;;;;12.47;2.40;;;15.20;64.60;;;17.54;48.73;101341.34;4917283;29;20273;-60
2022/11/02 01:25:27;;;;;;;5.70;2.30;;;15.20;64.60;;;17.55;48.80;101338.47;4912706;29;20211;-58
2022/11/02 01:27:54;;;;;;;8.13;2.03;;;15.20;64.60;;;17.50;48.84;101324.94;4898810;29;20255;-58
2022/11/02 01:30:22;;;;;;;5.60;2.10;;;15.20;64.70;;;17.51;48.87;101318.63;4898530;29;20188;-58
2022/11/02 01:32:49;;;;;;;9.63;2.30;;;15.20;64.70;;;17.51;48.72;101334.59;4898406;29;20218;-57
2022/11/02 01:35:16;;;;;;;5.27;2.30;;;15.20;64.50;;;17.48;48.96;101329.66;4915803;29;20210;-59
2022/11/02 01:37:43;;;;;;;7.77;2.60;;;15.20;64.60;;;17.50;49.00;101337.41;4917051;29;20212;-58
2022/11/02 01:40:11;;;;;;;3.10;1.87;;;15.20;64.70;;;17.50;48.93;101332.91;4917816;29;20222;-61
2022/11/02 01:42:38;;;;;;;8.90;2.43;;;15.20;64.70;;;17.41;49.05;101317.34;4916754;29;20277;-56
2022/11/02 01:45:06;;;;;;;6.53;2.20;;;15.10;64.60;;;17.37;49.42;101322.28;4916016;29;20648;-60
2022/11/02 01:47:41;;;;;;;10.53;2.30;;;15.20;64.90;;;17.42;48.98;101325.13;4897902;29;20218;-58
2022/11/02 01:50:13;;;;;;;6.60;2.27;;;15.10;64.80;;;17.44;49.31;101325.75;4913057;29;20206;-60
2022/11/02 01:52:40;;;;;;;5.40;2.03;;;15.20;65.00;;;17.46;49.10;101315.72;4916444;29;20308;-58
2022/11/02 01:55:15;;;;;;;8.20;2.07;;;15.20;65.00;;;17.46;48.99;101310.41;4916276;29;20198;-59
2022/11/02 01:57:46;;;;;;;3.83;1.80;;;15.20;65.00;;;17.49;49.08;101314.50;4917189;29;20194;-59
2022/11/02 02:00:17;;;;;;;7.00;2.00;;;15.20;65.00;;;17.56;48.85;101304.69;4917042;29;20290;-58
2022/11/02 02:02:53;;;;;;;4.73;2.23;;;15.20;64.90;;;17.61;48.73;101312.06;4916740;29;20282;-60
2022/11/02 02:05:23;;;;;;;7.97;2.57;;;15.20;65.00;;;17.61;48.73;101315.56;4919350;29;20211;-59
2022/11/02 02:07:51;;;;;;;11.83;2.67;;;15.20;64.90;;;17.59;48.85;101307.75;4919892;29;20561;-60
2022/11/02 02:10:18;;;;;;;6.20;2.10;;;15.20;64.90;;;17.57;49.12;101307.13;4919725;29;20557;-59
2022/11/02 02:12:46;;;;;;;7.37;2.30;;;15.20;64.80;;;17.51;49.19;101300.00;4919993;29;20233;-58
2022/11/02 02:15:14;;;;;;;8.77;2.20;;;15.20;65.00;;;17.55;48.96;101303.03;4914905;29;20195;-60
2022/11/02 02:17:51;;;;;;;7.57;2.20;;;15.20;65.00;;;17.44;49.35;101303.66;4901216;29;20327;-60
2022/11/02 02:20:41;;;;;;;10.20;2.43;;;15.10;65.90;;;17.37;49.48;101295.66;4901063;29;20225;-61
2022/11/02 02:24:03;;;;;;;6.40;1.77;;;15.10;65.10;;;17.34;49.51;101288.09;4901002;29;20207;-60
2022/11/02 02:26:59;;;;;;;7.10;2.77;;;15.20;65.30;;;17.39;49.54;101288.28;4899158;29;20223;-60
2022/11/02 02:29:42;;;;;;;7.03;2.17;;;15.20;66.20;;;17.35;50.02;101287.03;4900844;29;20196;-59
2022/11/02 02:32:19;;;;;;;6.57;2.10;;;15.10;65.70;;;17.33;50.22;101286.44;4900492;29;20255;-60
2022/11/02 02:34:53;;;;;;;9.83;2.60;;;15.10;66.10;;;17.39;50.33;101282.16;4914596;29;20202;-57
2022/11/02 02:37:30;;;;;;;9.07;2.13;;;15.10;66.30;;;17.28;50.82;101278.25;4919967;29;20201;-59
2022/11/02 02:40:03;;;;;;;5.00;1.90;;;15.00;66.70;;;17.32;50.65;101276.84;4919836;29;20218;-59
2022/11/02 02:42:39;;;;;;;7.97;2.50;;;15.10;66.80;;;17.35;50.62;101271.06;4900293;29;20626;-59
2022/11/02 02:45:15;;;;;;;6.03;2.33;;;15.10;67.10;;;17.33;50.57;101278.44;4905301;29;20260;-58
2022/11/02 02:47:48;;;;;;;7.33;2.50;;;15.10;67.10;;;17.37;50.73;101277.03;4919306;29;20730;-58
2022/11/02 02:50:24;;;;;;;4.93;1.87;;;15.10;67.90;;;17.33;50.90;101267.81;4919812;29;20195;-60
2022/11/02 02:52:54;;;;;;;7.03;2.10;;;15.10;67.20;;;17.36;50.68;101267.41;4919398;29;20257;-58
2022/11/02 02:55:26;;;;;;;8.97;2.57;;;15.10;67.20;;;17.31;50.64;101275.19;4912648;29;20592;-58
2022/11/02 02:57:56;;;;;;;7.90;2.30;;;15.00;67.20;;;17.29;50.68;101279.91;4900534;29;20732;-58
2022/11/02 03:00:25;;;;;;;8.37;2.40;;;15.00;67.30;;;17.28;50.95;101278.25;4900221;29;20219;-64
2022/11/02 03:02:59;;;;;;;8.40;2.20;;;15.00;67.30;;;17.33;50.87;101281.13;4900139;29;20640;-59
2022/11/02 03:05:31;;;;;;;7.23;2.17;;;15.00;67.30;;;17.29;50.79;101277.22;4907382;29;20209;-58
2022/11/02 03:08:04;;;;;;;9.17;2.30;;;15.00;67.40;;;17.32;50.79;101273.34;4919411;29;20602;-60
2022/11/02 03:10:40;;;;;;;6.27;1.90;;;15.00;67.40;;;17.30;50.78;101276.22;4919096;29;20655;-59
2022/11/02 03:13:22;;;;;;;6.13;2.47;;;15.00;67.50;;;17.29;50.77;101266.59;4919130;29;20271;-59
2022/11/02 03:15:58;;;;;;;9.27;2.50;;;15.00;67.60;;;17.25;51.17;101273.34;4909295;29;20259;-59
2022/11/02 03:18:43;;;;;;;3.97;1.57;;;15.00;67.80;;;17.24;51.27;101274.38;4905253;29;20277;-59
2022/11/02 03:21:24;;;;;;;7.07;1.80;;;14.90;67.90;;;17.27;51.33;101273.13;4925646;29;20227;-59
2022/11/02 03:23:58;;;;;;;6.97;2.10;;;14.90;68.10;;;17.28;51.36;101283.56;4918489;29;20198;-58
2022/11/02 03:26:32;;;;;;;6.37;2.37;;;14.90;68.30;;;17.26;51.60;101280.28;4917763;29;20572;-60
2022/11/02 03:29:08;;;;;;;8.17;2.37;;;14.90;68.60;;;17.24;51.72;101290.31;4918486;29;20198;-60
2022/11/02 03:31:43;;;;;;;8.07;2.17;;;14.90;68.80;;;17.28;51.72;101290.75;4918286;29;20691;-59
2022/11/02 03:34:25;;;;;;;6.93;2.40;;;14.90;69.10;;;17.26;52.03;101287.44;4918501;29;20231;-57
2022/11/02 03:37:01;;;;;;;4.50;2.00;;;14.90;69.50;;;17.29;51.99;101290.53;4917912;29;20667;-58
2022/11/02 03:39:35;;;;;;;7.40;2.40;;;14.90;69.60;;;17.30;52.58;101289.53;4918983;29;20711;-58
2022/11/02 03:42:06;;;;;;;5.63;2.23;;;14.90;70.40;;;17.34;52.79;101296.06;4918188;29;20222;-59
2022/11/02 03:44:38;;;;;;;11.20;2.77;;;14.90;70.90;;;17.39;53.12;101293.63;4918627;29;20206;-60
2022/11/02 03:47:12;;;;;;;10.63;2.30;;;14.90;71.30;;;17.37;53.37;101290.34;4921210;29;20583;-58
2022/11/02 03:49:41;;;;;;;7.10;2.50;;;15.00;71.90;;;17.41;53.51;101296.88;4918371;29;20294;-60
2022/11/02 03:52:17;;;;;;;9.87;2.17;;;15.00;71.90;;;17.47;53.61;101300.56;4917881;29;20743;-59
2022/11/02 03:54:54;;;;;;;5.87;2.00;;;15.00;72.00;;;17.55;53.34;101301.22;4917612;29;20194;-57
2022/11/02 03:57:30;;;;;;;6.50;2.03;;;15.10;71.80;;;17.61;53.04;101301.41;4899357;29;20638;-59
2022/11/02 04:00:07;;;;;;;8.43;2.97;;;15.10;71.60;;;17.64;53.03;101301.00;4898990;29;20278;-59
2022/11/02 04:02:38;;;;;;;3.63;1.73;;;15.10;71.50;;;17.64;52.90;101296.47;4908571;29;20591;-58
2022/11/02 04:05:06;;;;;;;6.03;2.20;;;15.20;71.40;;;17.62;53.14;101297.72;4917671;29;20251;-58
2022/11/02 04:10:25;;;;;;;7.53;2.33;;;15.30;71.20;;;17.75;52.63;101297.69;4917816;29;20544;-63
2022/11/02 04:15:39;;;;;;;6.47;2.00;;;15.30;70.90;;;17.96;52.20;101311.59;4913167;29;20720;-58
2022/11/02 04:20:53;;;;;;;5.77;1.70;;;15.40;70.70;;;18.19;51.51;101311.09;4917008;29;20285;-60
2022/11/02 04:26:05;;;;;;;10.93;2.73;;;15.50;70.60;;;18.25;51.31;101315.63;4915810;29;20258;-59
2022/11/02 04:28:32;;;;;;;9.63;2.97;;;15.50;70.30;;;18.18;51.50;101312.94;4917932;29;20553;-59
2022/11/02 04:30:59;;;;;;;10.77;2.20;;;15.60;70.30;;;18.13;51.60;101306.63;4917711;29;20210;-60
2022/11/02 04:33:34;;;;;;;6.30;2.50;;;15.50;70.10;;;18.06;51.63;101316.50;4917479;29;20194;-59
2022/11/02 04:36:05;;;;;;;7.53;2.33;;;15.60;70.20;;;18.04;51.70;101329.22;4914861;29;20210;-59
2022/11/02 04:38:42;;;;;;;6.93;2.07;;;15.50;70.10;;;18.09;51.51;101332.06;4911158;29;20206;-58
2022/11/02 04:43:58;;;;;;;9.00;2.00;;;15.50;70.30;;;18.20;51.56;101328.75;4917369;29;20235;-59
2022/11/02 04:46:27;;;;;;;7.10;2.73;;;15.60;70.40;;;18.21;51.77;101333.84;4916693;29;20547;-57
2022/11/02 04:48:56;;;;;;;6.30;2.27;;;15.60;70.40;;;18.20;51.75;101332.22;4917365;29;20205;-60
2022/11/02 04:51:26;;;;;;;10.30;3.13;;;15.60;70.60;;;18.12;52.10;101326.28;4906805;29;20227;-58
2022/11/02 04:53:55;;;;;;;7.23;1.90;;;15.60;71.10;;;18.10;52.53;101333.69;4897667;29;20255;-58
2022/11/02 04:56:23;;;;;;;8.57;2.03;;;15.60;71.10;;;18.10;51.97;101329.19;4909947;29;20206;-59
2022/11/02 04:58:52;;;;;;;5.13;1.30;;;15.50;70.50;;;18.15;51.40;101339.22;4917252;29;20194;-58
2022/11/02 05:01:22;;;;;;;5.00;1.53;;;15.50;69.80;;;18.16;51.24;101327.53;4916477;29;20765;-60
2022/11/02 05:03:51;;;;;;;4.17;1.40;;;15.50;70.10;;;18.06;52.19;101337.81;4917199;29;20262;-60
2022/11/02 05:06:22;;;;;;;5.97;1.90;;;15.40;71.00;;;17.70;53.88;101316.13;4915408;29;20202;-60
2022/11/02 05:08:49;;;;;;;4.20;1.13;;;15.30;72.50;;;17.47;54.57;101317.34;4917315;29;20195;-60
2022/11/02 05:11:16;;;;;;;4.57;1.67;;;15.30;72.80;;;17.30;54.93;101315.31;4916961;29;20242;-60
2022/11/02 05:13:44;;;;;;;6.13;1.57;;;15.10;72.90;;;17.14;55.76;101311.19;4917056;29;20277;-60
2022/11/02 05:16:14;;;;;;;8.87;2.33;;;15.00;73.60;;;17.00;56.22;101306.88;4916495;29;20257;-59
2022/11/02 05:18:41;;;;;;;3.97;1.57;;;14.90;74.40;;;16.91;56.68;101308.91;4917030;29;20202;-58
2022/11/02 05:21:10;;;;;;;6.47;2.00;;;14.80;75.30;;;16.85;57.23;101312.38;4915872;29;20238;-59
2022/11/02 05:23:39;;;;;;;4.23;1.77;;;14.70;75.80;;;16.84;57.56;101315.25;4917154;29;20554;-59
2022/11/02 05:26:10;;;;;;;6.10;2.43;;;14.60;76.50;;;16.82;57.23;101311.97;4907372;29;20569;-60
2022/11/02 05:28:37;;;;;;;8.20;2.37;;;14.60;76.40;;;16.77;57.99;101314.41;4898063;29;20199;-60
2022/11/02 05:31:05;;;;;;;7.47;2.67;;;14.50;77.50;;;16.70;58.45;101310.91;4897668;29;20222;-59
2022/11/02 05:33:33;;;;;;;7.87;2.73;;;14.40;77.90;;;16.65;58.76;101300.88;4902652;29;20195;-60
2022/11/02 05:36:00;;;;;;;8.00;2.60;;;14.40;78.30;;;16.67;58.52;101308.66;4916143;29;20207;-58
2022/11/02 05:38:27;;;;;;;4.37;2.03;;;14.30;78.20;;;16.67;58.67;101305.97;4917360;29;20241;-59
2022/11/02 05:40:58;;;;;;;7.73;2.53;;;14.30;78.50;;;16.63;58.77;101313.56;4919727;29;20663;-60
2022/11/02 05:43:26;;;;;;;7.03;2.10;;;14.30;79.00;;;16.60;58.78;101326.41;4920829;29;20652;-59
2022/11/02 05:45:55;;;;;;;8.50;2.43;;;14.20;79.40;;;16.56;58.76;101322.53;4920222;29;20574;-58
2022/11/02 05:48:23;;;;;;;8.43;2.50;;;14.20;79.40;;;16.52;58.89;101327.41;4921015;29;20285;-59
2022/11/02 05:50:54;;;;;;;6.00;2.40;;;14.10;79.50;;;16.48;58.92;101330.63;4920326;29;20218;-57
2022/11/02 05:53:22;;;;;;;10.83;3.17;;;14.10;79.50;;;16.43;58.85;101333.06;4919199;29;20663;-58
2022/11/02 05:55:50;;;;;;;8.77;3.03;;;14.10;79.40;;;16.39;58.91;101334.47;4918994;29;20295;-61
2022/11/02 05:58:18;;;;;;;5.10;2.30;;;14.00;79.40;;;16.37;59.27;101339.16;4904016;29;20251;-56
2022/11/02 06:00:45;;;;;;;8.77;3.00;;;14.00;80.10;;;16.34;58.87;101334.25;4900868;29;20611;-59
2022/11/02 06:03:12;;;;;;;7.77;2.63;;;14.00;79.30;;;16.35;58.92;101343.88;4901001;29;20211;-58
2022/11/02 06:05:39;;;;;;;7.90;2.23;;;14.00;79.20;;;16.37;58.99;101331.19;4905248;29;20320;-61
2022/11/02 06:08:06;;;;;;;6.97;2.70;;;13.90;79.10;;;16.42;58.71;101332.25;4920312;29;20708;-58
2022/11/02 06:10:34;;;;;;;5.30;1.90;;;14.00;79.10;;;16.44;58.52;101342.66;4919703;29;20760;-59
2022/11/02 06:13:02;;;;;;;7.23;2.47;;;14.00;78.80;;;16.48;57.97;101342.06;4919268;29;20278;-60
2022/11/02 06:15:31;;;;;;;9.43;2.40;;;14.00;78.70;;;16.48;57.84;101341.25;4918127;29;20199;-60
2022/11/02 06:17:58;;;;;;;7.23;2.30;;;14.00;78.40;;;16.46;57.91;101332.66;4919894;29;20191;-58
2022/11/02 06:20:25;;;;;;;8.13;2.13;;;14.00;78.10;;;16.49;57.81;101337.59;4919197;29;20266;-60
2022/11/02 06:22:53;;;;;;;7.83;2.70;;;14.00;78.00;;;16.43;57.43;101349.00;4919440;29;20214;-58
2022/11/02 06:25:20;;;;;;;3.67;1.90;;;14.00;77.80;;;16.39;57.76;101343.28;4918225;29;20700;-59
2022/11/02 06:27:52;;;;;;;5.87;2.30;;;14.00;77.70;;;16.32;57.89;101341.59;4905370;29;20240;-60
2022/11/02 06:30:20;;;;;;;5.50;2.10;;;14.00;77.60;;;16.38;57.61;101341.63;4918463;29;20219;-60
2022/11/02 06:32:50;;;;;;;6.50;2.30;;;14.00;77.60;;;16.37;57.35;101341.81;4918905;29;20227;-58
2022/11/02 06:35:20;;;;;;;4.80;2.07;;;14.00;77.40;;;16.42;57.15;101347.38;4918801;29;20617;-60
2022/11/02 06:37:47;;;;;;;11.10;2.60;;;14.00;77.20;;;16.44;57.59;101353.31;4919701;29;20262;-61
2022/11/02 06:40:15;;;;;;;7.67;2.40;;;14.00;77.30;;;16.48;57.13;101346.56;4917719;29;20553;-59
2022/11/02 06:42:44;;;;;;;5.97;2.10;;;14.00;77.10;;;16.58;57.02;101357.69;4918787;29;20229;-59
2022/11/02 06:45:31;;;;;;;5.00;1.67;;;14.10;77.00;;;16.49;56.84;101349.03;4919152;29;20210;-60
2022/11/02 06:48:00;;;;;;;5.30;2.40;;;14.00;76.60;;;16.48;56.62;101357.19;4919520;29;20191;-58
2022/11/02 06:50:29;;;;;;;7.07;2.00;;;14.10;76.50;;;16.54;56.61;101346.66;4920328;29;20203;-62
2022/11/02 06:52:56;;;;;;;7.93;2.87;;;14.10;76.40;;;16.56;56.36;101352.59;4921673;29;20198;-60
2022/11/02 06:55:23;;;;;;;5.20;1.97;;;14.10;76.20;;;16.58;55.99;101363.00;4921566;29;20243;-60
2022/11/02 06:57:50;;;;;;;6.77;2.37;;;14.10;76.00;;;16.56;56.23;101360.56;4903770;29;20226;-60
2022/11/02 07:00:17;;;;;;;7.13;2.43;;;14.10;75.70;;;16.59;55.96;101359.34;4902944;29;20607;-59
2022/11/02 07:03:00;;;;;;;8.93;2.43;;;14.20;75.60;;;16.61;55.71;101360.78;4906052;29;20219;-58
2022/11/02 07:05:28;;;;;;;8.23;2.40;;;14.20;75.30;;;16.63;55.33;101357.91;4919607;29;20273;-60
2022/11/02 07:07:56;;;;;;;7.00;2.20;;;14.20;74.70;;;16.68;55.21;101369.59;4919664;29;20203;-59
2022/11/02 07:10:25;;;;;;;9.40;2.73;;;14.20;74.40;;;16.71;55.16;101368.38;4919829;29;20250;-61
2022/11/02 07:12:53;;;;;;;11.03;2.27;;;14.30;74.30;;;16.76;54.82;101369.41;4919274;29;20226;-57
2022/11/02 07:15:21;;;;;;;3.70;1.87;;;14.30;73.90;;;16.90;54.23;101365.78;4924419;29;20269;-58
2022/11/02 07:17:48;;;;;;;9.33;2.50;;;14.40;74.00;;;16.98;54.14;101364.78;4919572;29;20211;-56
2022/11/02 07:20:17;;;;;;;10.30;2.50;;;14.40;73.70;;;17.10;53.83;101373.81;4919335;29;20731;-58
2022/11/02 07:22:51;;;;;;;8.00;2.10;;;14.50;73.80;;;17.18;53.34;101381.63;4918336;29;20675;-60
2022/11/02 07:25:18;;;;;;;8.67;1.87;;;14.50;73.20;;;17.30;53.60;101380.00;4918529;29;20598;-57
2022/11/02 07:27:45;;;;;;;5.00;2.20;;;14.60;73.30;;;17.38;53.19;101387.78;4918994;29;20202;-58
2022/11/02 07:30:13;;;;;;;8.40;2.50;;;14.70;73.10;;;17.43;52.79;101390.66;4918641;29;20198;-58
2022/11/02 07:32:40;;;;;;;10.00;2.20;;;14.70;72.70;;;17.51;52.69;101390.50;4916458;29;20701;-60
2022/11/02 07:35:10;;;;;;;7.07;2.30;;;14.80;72.80;;;17.55;52.35;101405.03;4918605;29;20207;-61
2022/11/02 07:37:39;;;;;;;6.97;2.47;;;14.80;72.00;;;17.59;52.19;101400.94;4918725;29;20566;-56
2022/11/02 07:40:09;;;;;;;5.93;1.90;;;14.80;71.80;;;17.57;51.96;101402.97;4918542;29;20205;-59
2022/11/02 07:42:44;;;;;;;5.40;2.60;;;14.80;71.40;;;17.61;52.01;101407.91;4916849;29;20222;-59
2022/11/02 07:45:11;;;;;;;6.00;2.03;;;14.90;71.30;;;17.64;51.55;101402.19;4918508;29;20528;-61
2022/11/02 07:47:43;;;;;;;7.67;3.17;;;15.00;70.80;;;17.58;51.41;101403.81;4919312;29;20218;-61
2022/11/02 07:50:11;;;;;;;6.97;2.20;;;15.00;70.50;;;17.67;51.75;101412.41;4918556;29;20230;-59
2022/11/02 07:52:48;;;;;;;6.77;2.30;;;15.10;70.60;;;17.83;51.36;101417.34;4914377;29;20656;-59
2022/11/02 07:55:18;;;;;;;6.53;2.10;;;15.10;70.40;;;18.02;50.82;101424.47;4899379;29;20195;-60
2022/11/02 07:57:52;;;;;;;7.87;2.20;;;15.20;70.20;;;18.12;50.15;101427.56;4899129;29;20235;-59
2022/11/02 08:00:20;;;;;;;6.63;2.43;;;15.30;69.60;;;18.22;50.10;101433.28;4899136;29;20670;-58
2022/11/02 08:02:47;;;;;;;5.67;2.30;;;15.40;69.30;;;18.30;50.05;101433.09;4903446;29;20240;-57
2022/11/02 08:05:14;;;;;;;7.57;2.60;;;15.50;69.30;;;18.25;49.59;101443.53;4918180;29;20195;-57
2022/11/02 08:07:41;;;;;;;6.83;2.10;;;15.50;68.40;;;18.29;49.66;101447.41;4917967;29;20306;-60
2022/11/02 08:10:10;;;;;;;8.63;2.90;;;15.50;68.40;;;18.39;49.49;101445.16;4917291;29;20274;-59
2022/11/02 08:12:37;;;;;;;10.80;2.70;;;15.60;68.40;;;18.42;49.57;101455.41;4916964;29;20529;-61
2022/11/02 08:15:06;;;;;;;5.30;2.30;;;15.60;68.30;;;18.47;49.19;101460.16;4918982;29;20750;-60
2022/11/02 08:17:33;;;;;;;8.37;2.57;;;15.70;68.30;;;18.46;49.34;101451.31;4918254;29;20222;-60
2022/11/02 08:20:00;;;;;;;6.30;2.37;;;15.70;68.10;;;18.51;49.29;101454.19;4917869;29;20659;-60
2022/11/02 08:22:27;;;;;;;6.93;2.20;;;15.70;68.20;;;18.52;49.18;101455.81;4916797;29;20222;-61
2022/11/02 08:24:54;;;;;;;8.70;2.33;;;15.70;68.20;;;18.54;49.33;101459.09;4918012;29;20202;-60
2022/11/02 08:27:23;;;;;;;8.80;2.00;;;15.70;68.20;;;18.59;49.24;101469.94;4916742;29;20214;-60
2022/11/02 08:29:50;;;;;;;4.97;1.80;;;15.70;68.30;;;18.64;49.08;101467.47;4918402;29;20193;-58
2022/11/02 08:32:17;;;;;;;7.27;2.27;;;15.70;68.20;;;18.72;48.99;101464.59;4917468;29;20230;-61
2022/11/02 08:34:44;;;;;;;9.90;2.83;;;15.80;68.40;;;18.84;48.57;101472.75;4918164;29;20195;-58
2022/11/02 08:37:11;;;;;;;5.80;2.50;;;15.80;68.10;;;18.90;48.73;101477.25;4917765;29;20233;-59
2022/11/02 08:39:38;;;;;;;5.40;2.57;;;15.90;67.90;;;19.04;48.34;101480.69;4917898;29;20580;-60
2022/11/02 08:42:05;;;;;;;8.17;2.20;;;16.00;68.70;;;19.21;48.27;101481.81;4912064;29;20223;-61
2022/11/02 08:44:34;;;;;;;9.73;4.00;;;16.10;67.60;;;19.32;47.92;101478.50;4914396;29;20551;-59
2022/11/02 08:47:08;;;;;;;6.30;2.50;;;16.40;67.10;;;19.59;47.94;101482.69;4919504;29;20246;-58
2022/11/02 08:49:35;;;;;;;6.50;1.97;;;16.60;66.80;;;19.75;46.93;101479.50;4907227;29;20655;-60
2022/11/02 08:52:03;;;;;;;6.20;2.60;;;16.80;65.50;;;19.89;46.55;101486.41;4897438;29;20577;-60
2022/11/02 08:54:30;;;;;;;6.87;2.17;;;17.00;64.50;;;20.02;45.39;101490.78;4899189;29;20199;-62
2022/11/02 08:56:57;;;;;;;4.60;1.93;;;17.20;63.70;;;20.06;46.09;101486.69;4898309;29;20263;-58
2022/11/02 08:59:24;;;;;;;6.37;2.13;;;17.30;63.70;;;20.19;45.32;101503.41;4908649;29;20210;-59
2022/11/02 09:01:52;;;;;;;7.40;2.70;;;17.40;62.90;;;20.35;44.70;101495.91;4922336;29;20222;-58
2022/11/02 09:04:20;;;;;;;6.73;2.17;;;17.50;62.10;;;20.37;44.75;101499.19;4921559;29;20263;-58
2022/11/02 09:06:47;;;;;;;12.70;2.37;;;17.50;61.80;;;20.28;44.21;101500.50;4910611;29;20284;-57
2022/11/02 09:09:14;;;;;;;5.37;2.57;;;17.50;61.40;;;20.16;44.36;101495.81;4911179;29;20199;-59
2022/11/02 09:11:41;;;;;;;8.97;2.80;;;17.40;61.20;;;20.13;45.02;101498.91;4911762;29;20219;-58
2022/11/02 09:14:08;;;;;;;6.07;2.23;;;17.40;61.60;;;20.09;45.05;101508.44;4921931;29;20198;-59
2022/11/02 09:16:36;;;;;;;6.33;2.43;;;17.30;61.50;;;20.15;44.50;101504.06;4935120;29;20251;-60
2022/11/02 09:19:09;;;;;;;4.43;2.43;;;17.30;61.90;;;20.14;44.62;101503.25;4921516;29;20207;-57
2022/11/02 09:21:36;;;;;;;6.47;2.27;;;17.30;61.90;;;20.25;45.00;101512.47;4919495;29;20227;-60
2022/11/02 09:24:04;;;;;;;7.17;2.67;;;17.30;62.10;;;20.29;43.99;101507.47;4919295;29;20242;-58
2022/11/02 09:26:34;;;;;;;5.20;2.13;;;17.30;61.30;;;20.27;43.90;101515.72;4921618;29;20202;-59
2022/11/02 09:29:02;;;;;;;5.13;2.13;;;17.30;61.10;;;20.15;43.78;101523.59;4918793;29;20237;-57
2022/11/02 09:31:29;;;;;;;3.33;1.83;;;17.30;60.90;;;19.99;44.66;101523.31;4920556;29;20305;-58
2022/11/02 09:33:56;;;;;;;5.57;2.10;;;17.30;61.00;;;19.87;44.77;101520.50;4930924;29;20210;-58
2022/11/02 09:36:24;;;;;;;8.83;2.10;;;17.20;61.40;;;19.71;45.06;101531.72;4917716;29;20207;-59
2022/11/02 09:38:51;;;;;;;5.47;2.20;;;17.10;61.70;;;19.58;45.21;101531.81;4916544;29;20262;-56
2022/11/02 09:41:32;;;;;;;7.30;2.43;;;17.00;61.90;;;19.46;45.39;101534.34;4916786;29;20214;-58
2022/11/02 09:44:07;;;;;;;6.37;2.30;;;16.90;62.30;;;19.35;45.82;101544.84;4917685;29;20219;-60
2022/11/02 09:46:38;;;;;;;5.80;2.10;;;16.70;62.60;;;19.29;46.06;101537.66;4918065;29;20216;-59
2022/11/02 09:49:14;;;;;;;11.70;3.93;;;16.70;63.20;;;19.27;46.59;101556.56;4915284;29;20202;-57
2022/11/02 09:51:47;;;;;;;6.57;2.97;;;16.60;64.00;;;19.31;46.72;101546.28;4916616;29;20226;-58
2022/11/02 09:54:28;;;;;;;5.17;2.70;;;16.60;64.50;;;19.35;46.59;101548.31;4912975;29;20207;-58
2022/11/02 09:57:03;;;;;;;9.67;4.23;;;16.60;64.70;;;19.42;46.91;101553.66;4918792;29;20234;-56
2022/11/02 09:59:32;;;;;;;9.77;3.73;;;16.50;65.20;;;19.50;46.62;101572.09;4929075;29;20226;-58
2022/11/02 10:02:12;;;;;;;6.30;2.23;;;16.60;65.20;;;19.50;46.34;101567.59;4915737;29;20237;-59
2022/11/02 10:05:09;;;;;;;5.33;2.17;;;16.60;64.50;;;19.44;46.15;101592.47;4916743;29;20210;-62
2022/11/02 10:08:01;;;;;;;10.87;2.40;;;16.60;63.70;;;19.35;45.47;101590.22;4917124;29;20250;-60
2022/11/02 10:10:38;;;;;;;4.30;1.70;;;16.60;62.40;;;19.33;45.18;101602.94;4915334;29;20562;-59
2022/11/02 10:13:24;;;;;;;5.33;1.67;;;16.50;62.30;;;19.28;45.33;101605.44;4916852;29;20236;-57
2022/11/02 10:15:59;;;;;;;5.90;1.77;;;16.50;62.70;;;19.36;46.01;101608.72;4918144;29;20207;-59
2022/11/02 10:18:29;;;;;;;5.27;2.00;;;16.50;63.30;;;19.37;46.01;101599.66;4908882;29;20244;-58
2022/11/02 10:21:01;;;;;;;5.77;2.50;;;16.60;63.60;;;19.41;46.17;101605.44;4919101;29;20231;-58
2022/11/02 10:23:37;;;;;;;5.23;1.93;;;16.60;63.90;;;19.40;46.05;101599.25;4915771;29;20321;-60
2022/11/02 10:26:05;;;;;;;3.23;1.50;;;16.60;63.90;;;19.41;46.58;101602.75;4913476;29;20226;-60
2022/11/02 10:28:38;;;;;;;6.67;1.80;;;16.70;64.00;;;19.42;46.42;101604.41;4917409;29;20238;-58
2022/11/02 10:31:22;;;;;;;3.67;1.80;;;16.70;64.10;;;19.41;46.69;101610.78;4917261;29;20629;-59
2022/11/02 10:33:51;;;;;;;6.17;2.20;;;16.70;63.90;;;19.46;46.62;101608.28;4906488;29;20206;-58
2022/11/02 10:36:43;;;;;;;5.33;1.90;;;16.70;64.00;;;19.47;46.39;101616.06;4897355;29;20357;-61
2022/11/02 10:39:28;;;;;;;6.97;1.90;;;16.70;63.70;;;19.54;45.90;101626.72;4900467;29;20283;-58
2022/11/02 10:42:41;;;;;;;7.23;2.00;;;16.80;63.20;;;19.66;45.56;101616.22;4896312;29;20227;-58